Time;durP1;ratioP1;P1;durP2;ratioP2;P2;SDS_P1;SDS_P2;PMS_P1;PMS_P2;Temp;Humidity;BMP_temperature;BMP_pressure;BME280_temperature;BME280_humidity;BME280_pressure;Samples;Min_cycle;Max_cycle;Signal;HPM_P1;HPM_P2
2023/04/05 00:03:42;;;;;;;;;;;4.30;72.90;;;;;;8381163;28;19972;-73
2023/04/05 00:07:47;;;;;;;;;;;4.10;74.30;;;;;;8383729;28;20040;-73
2023/04/05 00:11:48;;;;;;;;;;;4.00;77.30;;;;;;8370126;28;19983;-73
2023/04/05 00:15:50;;;;;;;;;;;4.00;75.10;;;;;;8405904;28;20341;-73
2023/04/05 00:19:55;;;;;;;;;;;3.90;71.60;;;;;;8397621;28;20522;-73
2023/04/05 00:23:58;;;;;;;;;;;3.90;70.00;;;;;;8381759;28;19929;-73
2023/04/05 00:27:59;;;;;;;;;;;3.80;69.80;;;;;;8393040;28;19924;-72
2023/04/05 00:32:01;;;;;;;;;;;3.80;70.40;;;;;;8410500;28;20215;-73
2023/04/05 00:36:16;;;;;;;;;;;3.70;72.70;;;;;;8369741;28;19925;-73
2023/04/05 00:40:18;;;;;;;;;;;3.70;72.50;;;;;;8377127;28;19928;-74
2023/04/05 00:44:20;;;;;;;;;;;3.60;73.70;;;;;;8392937;28;19933;-73
2023/04/05 00:48:22;;;;;;;;;;;3.50;75.50;;;;;;8395752;28;19974;-73
2023/04/05 00:52:23;;;;;;;;;;;3.40;74.00;;;;;;8367136;28;19947;-73
2023/04/05 00:56:25;;;;;;;;;;;3.40;74.00;;;;;;8397655;28;20372;-73
2023/04/05 01:00:27;;;;;;;;;;;3.40;73.80;;;;;;8401571;28;19938;-73
2023/04/05 01:04:31;;;;;;;;;;;3.40;75.10;;;;;;8376620;28;19929;-73
2023/04/05 01:08:44;;;;;;;;;;;3.30;73.00;;;;;;8394256;28;22045;-73
2023/04/05 01:12:46;;;;;;;;;;;3.30;73.10;;;;;;8382911;28;19931;-73
2023/04/05 01:16:56;;;;;;;;;;;3.30;68.80;;;;;;8389232;28;19938;-73
2023/04/05 01:21:09;;;;;;;;;;;3.20;72.00;;;;;;8389089;28;19929;-73
2023/04/05 01:25:35;;;;;;;;;;;3.20;72.90;;;;;;8380317;28;19964;-73
2023/04/05 01:29:44;;;;;;;;;;;3.20;68.70;;;;;;8386065;28;19940;-73
2023/04/05 01:33:51;;;;;;;;;;;3.10;68.60;;;;;;8352893;28;19932;-73
2023/04/05 01:37:56;;;;;;;;;;;3.00;71.50;;;;;;8377393;28;19924;-73
2023/04/05 01:41:58;;;;;;;;;;;3.00;71.70;;;;;;8355508;28;20292;-73
2023/04/05 01:46:00;;;;;;;;;;;2.90;72.60;;;;;;8382530;28;19929;-73
2023/04/05 01:50:02;;;;;;;;;;;2.90;72.70;;;;;;8373689;28;19925;-73
2023/04/05 01:54:04;;;;;;;;;;;2.80;73.10;;;;;;8386348;28;19931;-73
2023/04/05 01:58:06;;;;;;;;;;;2.80;72.10;;;;;;8389325;28;19929;-73
2023/04/05 02:02:07;;;;;;;;;;;2.70;73.00;;;;;;8371962;28;19966;-73
2023/04/05 02:06:09;;;;;;;;;;;2.70;72.80;;;;;;8379825;28;20459;-73
2023/04/05 02:10:11;;;;;;;;;;;2.70;73.10;;;;;;8374930;28;19939;-73
2023/04/05 02:14:13;;;;;;;;;;;2.60;73.90;;;;;;8383546;28;19925;-73
2023/04/05 02:18:14;;;;;;;;;;;2.60;74.40;;;;;;8389596;28;20321;-73
2023/04/05 02:22:16;;;;;;;;;;;2.50;72.80;;;;;;8359261;28;20341;-73
2023/04/05 02:26:18;;;;;;;;;;;2.50;73.40;;;;;;8396872;28;19934;-73
2023/04/05 02:30:20;;;;;;;;;;;2.40;74.10;;;;;;8381573;28;20395;-72
2023/04/05 02:34:21;;;;;;;;;;;2.40;73.30;;;;;;8373525;28;19933;-73
2023/04/05 02:38:23;;;;;;;;;;;2.30;75.30;;;;;;8376226;28;20391;-73
2023/04/05 02:42:24;;;;;;;;;;;2.30;76.20;;;;;;8384367;28;19925;-73
2023/04/05 02:46:26;;;;;;;;;;;2.20;74.90;;;;;;8370305;28;19925;-73
2023/04/05 02:50:28;;;;;;;;;;;2.20;74.20;;;;;;8390809;28;20380;-73
2023/04/05 02:54:29;;;;;;;;;;;2.10;75.10;;;;;;8373047;28;19932;-73
2023/04/05 02:58:31;;;;;;;;;;;2.10;74.50;;;;;;8397694;28;19929;-73
2023/04/05 03:02:32;;;;;;;;;;;2.10;75.80;;;;;;8377439;28;19967;-73
2023/04/05 03:06:34;;;;;;;;;;;2.00;76.50;;;;;;8381565;28;19932;-73
2023/04/05 03:10:37;;;;;;;;;;;1.90;76.10;;;;;;8382371;28;19924;-73
2023/04/05 03:14:40;;;;;;;;;;;1.90;74.70;;;;;;8380557;28;20016;-73
2023/04/05 03:18:41;;;;;;;;;;;1.80;75.60;;;;;;8376009;28;19931;-73
2023/04/05 03:22:43;;;;;;;;;;;1.80;76.20;;;;;;8353576;28;19967;-73
2023/04/05 03:26:45;;;;;;;;;;;1.80;74.70;;;;;;8381315;28;19947;-73
2023/04/05 03:30:47;;;;;;;;;;;1.70;76.10;;;;;;8366993;28;20309;-73
2023/04/05 03:34:49;;;;;;;;;;;1.70;76.10;;;;;;8385365;28;19932;-73
2023/04/05 03:38:50;;;;;;;;;;;1.60;75.70;;;;;;8384028;28;19924;-73
2023/04/05 03:42:52;;;;;;;;;;;1.60;75.20;;;;;;8389103;28;20003;-73
2023/04/05 03:46:54;;;;;;;;;;;1.60;74.20;;;;;;8383499;28;19928;-73
2023/04/05 03:50:56;;;;;;;;;;;1.50;74.20;;;;;;8386353;28;19929;-73
2023/04/05 03:54:57;;;;;;;;;;;1.50;74.70;;;;;;8369861;28;20375;-73
2023/04/05 03:58:59;;;;;;;;;;;1.40;75.40;;;;;;8370974;28;20372;-73
2023/04/05 04:03:01;;;;;;;;;;;1.40;74.30;;;;;;8364128;28;19979;-73
2023/04/05 04:07:02;;;;;;;;;;;1.40;75.70;;;;;;8364112;28;19932;-73
2023/04/05 04:11:05;;;;;;;;;;;1.30;74.60;;;;;;8389883;28;19935;-73
2023/04/05 04:15:07;;;;;;;;;;;1.30;73.80;;;;;;8380224;28;20303;-73
2023/04/05 04:19:08;;;;;;;;;;;1.30;74.10;;;;;;8376309;28;19983;-73
2023/04/05 04:23:13;;;;;;;;;;;1.30;73.70;;;;;;8388478;28;19925;-73
2023/04/05 04:27:15;;;;;;;;;;;1.20;74.40;;;;;;8355241;28;19944;-73
2023/04/05 04:31:17;;;;;;;;;;;1.20;74.30;;;;;;8381255;28;19932;-73
2023/04/05 04:35:23;;;;;;;;;;;1.20;74.70;;;;;;8351221;28;19924;-73
2023/04/05 04:39:26;;;;;;;;;;;1.20;75.30;;;;;;8370565;28;19924;-73
2023/04/05 04:43:27;;;;;;;;;;;1.20;75.50;;;;;;8378452;28;19934;-73
2023/04/05 04:47:30;;;;;;;;;;;1.10;75.60;;;;;;8363288;28;19932;-73
2023/04/05 04:51:32;;;;;;;;;;;1.10;76.60;;;;;;8396481;28;19928;-73
2023/04/05 04:55:35;;;;;;;;;;;1.00;75.60;;;;;;8397140;28;19977;-73
2023/04/05 04:59:36;;;;;;;;;;;1.00;75.00;;;;;;8392824;28;19925;-73
2023/04/05 05:03:38;;;;;;;;;;;1.00;75.20;;;;;;8389370;28;20003;-72
2023/04/05 05:07:43;;;;;;;;;;;1.00;75.20;;;;;;8394058;28;19959;-73
2023/04/05 05:11:44;;;;;;;;;;;1.00;75.80;;;;;;8390221;28;19924;-73
2023/04/05 05:15:47;;;;;;;;;;;0.90;75.60;;;;;;8386799;28;20011;-73
2023/04/05 05:19:48;;;;;;;;;;;0.90;75.70;;;;;;8362518;28;19935;-73
2023/04/05 05:23:50;;;;;;;;;;;0.90;74.30;;;;;;8395061;28;19931;-73
2023/04/05 05:27:52;;;;;;;;;;;0.90;74.50;;;;;;8379618;28;20023;-73
2023/04/05 05:31:54;;;;;;;;;;;0.90;75.20;;;;;;8383479;28;19924;-73
2023/04/05 05:35:55;;;;;;;;;;;0.90;73.80;;;;;;8366096;28;19925;-73
2023/04/05 05:39:57;;;;;;;;;;;1.00;73.90;;;;;;8402452;28;19948;-73
2023/04/05 05:43:59;;;;;;;;;;;1.00;76.00;;;;;;8388497;28;19932;-73
2023/04/05 05:48:01;;;;;;;;;;;1.10;76.40;;;;;;8381595;28;19925;-73
2023/04/05 05:52:03;;;;;;;;;;;1.10;78.40;;;;;;8391177;28;19929;-73
2023/04/05 05:56:05;;;;;;;;;;;1.20;78.00;;;;;;8377744;28;20508;-73
2023/04/05 06:00:10;;;;;;;;;;;1.30;78.10;;;;;;8389221;28;19924;-73
2023/04/05 06:04:12;;;;;;;;;;;1.40;75.90;;;;;;8353949;28;19932;-68
2023/04/05 06:08:14;;;;;;;;;;;1.50;78.80;;;;;;8375747;28;19933;-70
2023/04/05 06:12:15;;;;;;;;;;;1.60;78.20;;;;;;8370286;28;19932;-70
2023/04/05 06:16:17;;;;;;;;;;;1.70;80.10;;;;;;8370844;28;20261;-70
2023/04/05 06:20:19;;;;;;;;;;;1.80;81.50;;;;;;8386030;28;20287;-71
2023/04/05 06:24:20;;;;;;;;;;;1.90;83.30;;;;;;8393401;28;19972;-68
2023/04/05 06:28:22;;;;;;;;;;;2.00;83.90;;;;;;8376064;28;19932;-68
2023/04/05 06:32:24;;;;;;;;;;;2.10;84.30;;;;;;8396950;28;19968;-68
2023/04/05 06:36:25;;;;;;;;;;;2.30;85.50;;;;;;8374117;28;19925;-68
2023/04/05 06:40:28;;;;;;;;;;;2.40;84.00;;;;;;8376738;28;20296;-68
2023/04/05 06:44:29;;;;;;;;;;;2.60;84.50;;;;;;8398034;28;19969;-68
2023/04/05 06:48:32;;;;;;;;;;;2.70;84.60;;;;;;8352655;28;20011;-68
2023/04/05 06:52:34;;;;;;;;;;;2.90;84.10;;;;;;8375121;28;20376;-68
2023/04/05 06:56:35;;;;;;;;;;;3.10;84.10;;;;;;8369528;28;19963;-68
2023/04/05 07:00:37;;;;;;;;;;;3.30;82.30;;;;;;8385607;28;20374;-68
2023/04/05 07:04:39;;;;;;;;;;;3.60;81.60;;;;;;8366568;28;19924;-68
2023/04/05 07:08:40;;;;;;;;;;;3.80;83.00;;;;;;8359584;28;19929;-68
2023/04/05 07:12:42;;;;;;;;;;;4.10;83.00;;;;;;8346296;28;19928;-68
2023/04/05 07:16:44;;;;;;;;;;;4.30;82.40;;;;;;8349786;28;19931;-68
2023/04/05 07:20:48;;;;;;;;;;;4.60;78.70;;;;;;8360662;28;19924;-68
2023/04/05 07:24:51;;;;;;;;;;;4.80;78.20;;;;;;8376922;28;20467;-68
2023/04/05 07:28:52;;;;;;;;;;;5.00;80.40;;;;;;8395327;28;19924;-68
2023/04/05 07:32:54;;;;;;;;;;;5.20;79.80;;;;;;8382962;28;20070;-68
2023/04/05 07:36:56;;;;;;;;;;;5.40;80.90;;;;;;8393875;28;19932;-68
2023/04/05 07:40:57;;;;;;;;;;;5.70;82.30;;;;;;8400027;28;20330;-69
2023/04/05 07:44:59;;;;;;;;;;;5.90;82.10;;;;;;8363327;28;19979;-68
2023/04/05 07:49:01;;;;;;;;;;;6.10;82.20;;;;;;8359924;28;19931;-68
2023/04/05 07:53:02;;;;;;;;;;;6.30;82.50;;;;;;8347808;28;20027;-69
2023/04/05 07:57:06;;;;;;;;;;;6.60;82.30;;;;;;8381905;28;19924;-68
2023/04/05 08:01:08;;;;;;;;;;;6.80;81.60;;;;;;8383514;28;19924;-69
2023/04/05 08:05:10;;;;;;;;;;;7.00;81.50;;;;;;8374547;28;19924;-68
2023/04/05 08:09:12;;;;;;;;;;;7.20;80.60;;;;;;8383629;28;20398;-68
2023/04/05 08:13:14;;;;;;;;;;;7.40;77.60;;;;;;8367892;28;19925;-68
2023/04/05 08:17:16;;;;;;;;;;;7.60;78.30;;;;;;8365968;28;19924;-68
2023/04/05 08:21:18;;;;;;;;;;;7.80;79.10;;;;;;8351411;28;19933;-68
2023/04/05 08:25:20;;;;;;;;;;;8.00;79.40;;;;;;8360319;28;19963;-68
2023/04/05 08:29:21;;;;;;;;;;;8.10;79.40;;;;;;8355517;28;20367;-68
2023/04/05 08:33:25;;;;;;;;;;;8.20;74.60;;;;;;8374485;28;20064;-68
2023/04/05 08:37:26;;;;;;;;;;;8.30;76.30;;;;;;8375681;28;19928;-68
2023/04/05 08:41:35;;;;;;;;;;;8.40;78.00;;;;;;8378523;28;19932;-69
2023/04/05 08:45:41;;;;;;;;;;;8.60;74.40;;;;;;8379508;28;19987;-68
2023/04/05 08:49:43;;;;;;;;;;;8.70;76.10;;;;;;8388798;28;20308;-69
2023/04/05 08:53:45;;;;;;;;;;;8.90;76.90;;;;;;8359376;28;20302;-68
2023/04/05 08:57:49;;;;;;;;;;;9.10;75.00;;;;;;8385342;28;19924;-68
2023/04/05 09:01:51;;;;;;;;;;;9.20;73.80;;;;;;8374257;28;19925;-68
2023/04/05 09:05:53;;;;;;;;;;;9.40;75.00;;;;;;8385512;28;19951;-68
2023/04/05 09:09:58;;;;;;;;;;;9.70;74.20;;;;;;8366842;28;19931;-69
2023/04/05 09:14:03;;;;;;;;;;;9.80;74.20;;;;;;8401375;28;19978;-68
2023/04/05 09:18:05;;;;;;;;;;;10.00;72.70;;;;;;8371746;28;20398;-69
2023/04/05 09:22:18;;;;;;;;;;;10.10;72.30;;;;;;8369730;28;19928;-68
2023/04/05 09:26:21;;;;;;;;;;;10.30;73.50;;;;;;8387715;28;20455;-68
2023/04/05 09:30:24;;;;;;;;;;;10.50;74.10;;;;;;8391898;28;19936;-68
2023/04/05 09:34:26;;;;;;;;;;;10.60;73.10;;;;;;8380437;28;19977;-68
2023/04/05 09:38:44;;;;;;;;;;;10.50;71.10;;;;;;8395157;28;19939;-69
2023/04/05 09:42:45;;;;;;;;;;;10.50;71.30;;;;;;8403146;28;19931;-68
2023/04/05 09:46:47;;;;;;;;;;;10.50;72.10;;;;;;8390402;28;19931;-69
2023/04/05 09:50:48;;;;;;;;;;;10.60;71.60;;;;;;8386456;28;19925;-69
2023/04/05 09:54:55;;;;;;;;;;;10.70;72.50;;;;;;8353462;28;19932;-68
2023/04/05 09:58:59;;;;;;;;;;;10.90;72.70;;;;;;8380537;28;20460;-68
2023/04/05 10:03:00;;;;;;;;;;;11.10;72.30;;;;;;8375177;28;19981;-69
2023/04/05 10:07:02;;;;;;;;;;;11.40;73.90;;;;;;8362610;28;19965;-68
2023/04/05 10:11:05;;;;;;;;;;;11.70;73.10;;;;;;8383619;28;19925;-69
2023/04/05 10:15:07;;;;;;;;;;;11.90;73.30;;;;;;8377212;28;19964;-69
2023/04/05 10:19:15;;;;;;;;;;;12.20;70.80;;;;;;8380058;28;19960;-69
2023/04/05 10:23:21;;;;;;;;;;;12.40;72.90;;;;;;8373495;28;19932;-69
2023/04/05 10:27:27;;;;;;;;;;;12.70;75.20;;;;;;8378908;28;19963;-69
2023/04/05 10:31:39;;;;;;;;;;;13.10;70.50;;;;;;8393630;28;20407;-69
2023/04/05 10:35:59;;;;;;;;;;;13.20;77.40;;;;;;8382294;28;19932;-69
2023/04/05 10:50:11;;;;;;;;;;;13.30;75.50;;;;;;8370231;28;19989;-69
2023/04/05 10:54:15;;;;;;;;;;;13.50;76.60;;;;;;8369722;28;19961;-69
2023/04/05 10:58:18;;;;;;;;;;;13.70;83.70;;;;;;8387823;28;20010;-69
2023/04/05 11:02:20;;;;;;;;;;;13.90;83.20;;;;;;8373100;28;19932;-69
2023/04/05 11:06:27;;;;;;;;;;;14.00;81.40;;;;;;8375891;28;20338;-69
2023/04/05 11:10:29;;;;;;;;;;;14.10;80.20;;;;;;8378294;28;19925;-69
2023/04/05 11:14:40;;;;;;;;;;;14.10;79.50;;;;;;8373262;28;20459;-69
2023/04/05 11:18:46;;;;;;;;;;;14.40;71.90;;;;;;8381076;28;19932;-69
2023/04/05 11:23:13;;;;;;;;;;;14.70;73.70;;;;;;8364744;28;19925;-69
2023/04/05 11:27:14;;;;;;;;;;;15.10;75.30;;;;;;8382998;28;19968;-69
2023/04/05 11:31:17;;;;;;;;;;;15.40;84.10;;;;;;8388621;28;19967;-69
2023/04/05 11:35:22;;;;;;;;;;;15.80;86.60;;;;;;8379310;28;19929;-69
2023/04/05 11:39:24;;;;;;;;;;;16.30;77.80;;;;;;8363495;28;20437;-69
2023/04/05 11:43:26;;;;;;;;;;;16.30;70.40;;;;;;8359455;28;19932;-69
2023/04/05 11:47:28;;;;;;;;;;;16.10;76.20;;;;;;8355202;28;20304;-69
2023/04/05 11:51:31;;;;;;;;;;;16.00;78.00;;;;;;8354836;28;19925;-69
2023/04/05 11:55:32;;;;;;;;;;;16.30;76.80;;;;;;8356679;28;25906;-69
2023/04/05 11:59:34;;;;;;;;;;;16.60;83.60;;;;;;8357392;28;19956;-69
2023/04/05 12:03:36;;;;;;;;;;;16.90;87.20;;;;;;8359682;28;19925;-69
2023/04/05 12:07:38;;;;;;;;;;;17.10;81.10;;;;;;8359670;28;19972;-69
2023/04/05 12:11:40;;;;;;;;;;;17.50;93.60;;;;;;8354113;28;20384;-69
2023/04/05 12:15:41;;;;;;;;;;;18.10;94.00;;;;;;8360004;28;19924;-70
2023/04/05 12:19:43;;;;;;;;;;;18.30;94.70;;;;;;8357489;28;20335;-70
2023/04/05 12:23:45;;;;;;;;;;;18.70;91.30;;;;;;8346836;28;20364;-69
2023/04/05 12:27:47;;;;;;;;;;;19.10;87.60;;;;;;8360201;28;20392;-69
2023/04/05 12:31:49;;;;;;;;;;;19.10;94.50;;;;;;8351121;28;19928;-69
2023/04/05 12:35:51;;;;;;;;;;;18.80;88.70;;;;;;8342261;28;19954;-69
2023/04/05 12:39:53;;;;;;;;;;;18.50;93.50;;;;;;8361385;28;19925;-69
2023/04/05 12:44:00;;;;;;;;;;;18.00;81.10;;;;;;8359087;28;20372;-69
2023/04/05 12:48:02;;;;;;;;;;;17.40;78.70;;;;;;8374653;28;20399;-69
2023/04/05 12:52:04;;;;;;;;;;;17.00;81.60;;;;;;8357439;28;19935;-69
2023/04/05 12:56:06;;;;;;;;;;;16.80;78.50;;;;;;8375248;28;19932;-69
2023/04/05 13:00:09;;;;;;;;;;;16.60;69.50;;;;;;8359097;28;19933;-69
2023/04/05 13:04:11;;;;;;;;;;;16.40;68.50;;;;;;8374263;28;20281;-69
2023/04/05 13:08:17;;;;;;;;;;;16.10;62.60;;;;;;8344802;28;19925;-69
2023/04/05 13:12:18;;;;;;;;;;;15.80;61.90;;;;;;8361039;28;19934;-69
2023/04/05 13:16:20;;;;;;;;;;;15.70;66.40;;;;;;8358351;28;20026;-69
2023/04/05 13:20:22;;;;;;;;;;;15.70;64.70;;;;;;8361457;28;20342;-69
2023/04/05 13:24:23;;;;;;;;;;;15.80;63.80;;;;;;8338151;28;19933;-69
2023/04/05 13:28:26;;;;;;;;;;;16.10;66.00;;;;;;8358256;28;20040;-69
2023/04/05 13:32:27;;;;;;;;;;;16.40;61.40;;;;;;8359889;28;19929;-69
2023/04/05 13:36:30;;;;;;;;;;;16.10;57.20;;;;;;8363225;28;19929;-68
2023/04/05 13:40:31;;;;;;;;;;;16.10;64.80;;;;;;8362901;28;19935;-69
2023/04/05 13:44:33;;;;;;;;;;;16.10;60.40;;;;;;8359097;28;20439;-69
2023/04/05 13:48:35;;;;;;;;;;;16.20;62.30;;;;;;8358030;28;19939;-70
2023/04/05 13:52:36;;;;;;;;;;;16.30;59.90;;;;;;8358466;28;19933;-69
2023/04/05 13:56:38;;;;;;;;;;;16.40;58.60;;;;;;8346792;28;19936;-69
2023/04/05 14:00:40;;;;;;;;;;;16.40;58.40;;;;;;8360891;28;19932;-69
2023/04/05 14:04:42;;;;;;;;;;;16.40;54.70;;;;;;8359089;28;19932;-69
2023/04/05 14:08:44;;;;;;;;;;;16.70;55.10;;;;;;8356685;28;19986;-69
2023/04/05 14:12:45;;;;;;;;;;;17.30;55.80;;;;;;8360085;28;20317;-69
2023/04/05 14:16:47;;;;;;;;;;;17.90;61.20;;;;;;8354820;28;19940;-69
2023/04/05 14:20:49;;;;;;;;;;;18.20;57.50;;;;;;8358956;28;19932;-69
2023/04/05 14:24:50;;;;;;;;;;;18.40;56.70;;;;;;8356487;28;20020;-70
2023/04/05 14:28:52;;;;;;;;;;;19.00;58.00;;;;;;8355375;28;20019;-70
2023/04/05 14:32:54;;;;;;;;;;;19.70;53.30;;;;;;8352272;28;20023;-69
2023/04/05 14:36:57;;;;;;;;;;;20.20;59.60;;;;;;8341074;28;19924;-70
2023/04/05 14:40:58;;;;;;;;;;;20.70;68.00;;;;;;8357705;28;19928;-70
2023/04/05 14:45:00;;;;;;;;;;;20.90;77.00;;;;;;8343656;28;19956;-70
2023/04/05 14:49:02;;;;;;;;;;;21.30;80.30;;;;;;8356313;28;19925;-70
2023/04/05 14:53:03;;;;;;;;;;;21.50;71.50;;;;;;8351707;28;20027;-70
2023/04/05 14:57:05;;;;;;;;;;;21.40;68.80;;;;;;8340036;28;19935;-70
2023/04/05 15:01:08;;;;;;;;;;;21.40;78.20;;;;;;8354212;28;19924;-70
2023/04/05 15:05:10;;;;;;;;;;;21.40;79.50;;;;;;8357013;28;20371;-70
2023/04/05 15:09:12;;;;;;;;;;;21.50;72.30;;;;;;8358040;28;19936;-70
2023/04/05 15:13:14;;;;;;;;;;;21.50;57.30;;;;;;8358518;28;19928;-70
2023/04/05 15:17:16;;;;;;;;;;;21.50;62.50;;;;;;8355904;28;19931;-70
2023/04/05 15:21:18;;;;;;;;;;;21.60;66.00;;;;;;8330555;28;19932;-70
2023/04/05 15:25:20;;;;;;;;;;;21.90;64.50;;;;;;8361161;28;20257;-70
2023/04/05 15:29:22;;;;;;;;;;;22.10;56.80;;;;;;8352730;28;19936;-70
2023/04/05 15:33:23;;;;;;;;;;;22.00;65.40;;;;;;8375007;28;19925;-70
2023/04/05 15:37:25;;;;;;;;;;;22.20;57.90;;;;;;8335300;28;19951;-70
2023/04/05 15:41:27;;;;;;;;;;;22.60;54.80;;;;;;8350083;28;20023;-70
2023/04/05 15:45:29;;;;;;;;;;;23.00;58.60;;;;;;8351083;28;20257;-70
2023/04/05 15:49:31;;;;;;;;;;;23.50;59.50;;;;;;8357111;28;19936;-70
2023/04/05 15:53:33;;;;;;;;;;;24.00;73.70;;;;;;8358167;28;19938;-70
2023/04/05 15:57:34;;;;;;;;;;;23.60;60.70;;;;;;8353820;28;20287;-70
2023/04/05 16:01:37;;;;;;;;;;;23.50;58.60;;;;;;8362242;28;19925;-70
2023/04/05 16:05:39;;;;;;;;;;;23.70;57.60;;;;;;8354549;28;19939;-70
2023/04/05 16:09:40;;;;;;;;;;;23.60;59.70;;;;;;8333058;28;19967;-70
2023/04/05 16:13:42;;;;;;;;;;;23.60;54.90;;;;;;8348164;28;20424;-70
2023/04/05 16:17:44;;;;;;;;;;;23.80;52.50;;;;;;8350622;28;20379;-70
2023/04/05 16:21:46;;;;;;;;;;;23.90;64.60;;;;;;8367206;28;19958;-70
2023/04/05 16:25:48;;;;;;;;;;;24.00;60.50;;;;;;8358304;28;19968;-70
2023/04/05 16:29:49;;;;;;;;;;;24.00;65.00;;;;;;8350932;28;19976;-70
2023/04/05 16:33:52;;;;;;;;;;;23.80;52.00;;;;;;8346063;28;19933;-70
2023/04/05 16:37:54;;;;;;;;;;;23.30;57.70;;;;;;8334228;28;20031;-70
2023/04/05 16:41:55;;;;;;;;;;;23.10;51.40;;;;;;8352271;28;20020;-70
2023/04/05 16:45:57;;;;;;;;;;;23.30;56.20;;;;;;8346487;28;20019;-70
2023/04/05 16:49:59;;;;;;;;;;;23.20;56.00;;;;;;8358043;28;19924;-70
2023/04/05 16:54:00;;;;;;;;;;;23.30;59.00;;;;;;8353459;28;20631;-70
2023/04/05 16:58:02;;;;;;;;;;;23.30;52.00;;;;;;8357653;28;20028;-70
2023/04/05 17:02:04;;;;;;;;;;;23.30;49.10;;;;;;8359151;28;20016;-70
2023/04/05 17:06:06;;;;;;;;;;;23.20;49.40;;;;;;8360309;28;19928;-70
2023/04/05 17:10:08;;;;;;;;;;;23.00;51.10;;;;;;8356197;28;19929;-70
2023/04/05 17:14:09;;;;;;;;;;;23.00;50.00;;;;;;8364720;28;19932;-70
2023/04/05 17:18:11;;;;;;;;;;;22.90;49.90;;;;;;8355494;28;20683;-70
2023/04/05 17:22:13;;;;;;;;;;;22.80;50.70;;;;;;8356849;28;19983;-70
2023/04/05 17:26:14;;;;;;;;;;;22.60;49.00;;;;;;8356952;28;19924;-70
2023/04/05 17:30:16;;;;;;;;;;;22.30;49.40;;;;;;8357187;28;19940;-70
2023/04/05 17:34:18;;;;;;;;;;;22.00;46.40;;;;;;8352032;28;19928;-70
2023/04/05 17:38:20;;;;;;;;;;;21.30;44.40;;;;;;8354436;28;20011;-69
2023/04/05 17:42:21;;;;;;;;;;;20.50;45.30;;;;;;8351270;28;19972;-69
2023/04/05 17:46:23;;;;;;;;;;;19.70;45.80;;;;;;8353895;28;19933;-69
2023/04/05 17:50:35;;;;;;;;;;;18.90;45.30;;;;;;8356434;28;19929;-70
2023/04/05 17:54:36;;;;;;;;;;;18.20;45.30;;;;;;8361789;28;19939;-69
2023/04/05 17:58:38;;;;;;;;;;;17.40;45.50;;;;;;8344903;28;19928;-69
2023/04/05 18:02:40;;;;;;;;;;;16.70;46.70;;;;;;8340912;28;20007;-69
2023/04/05 18:06:42;;;;;;;;;;;16.10;47.90;;;;;;8367375;28;19925;-69
2023/04/05 18:10:43;;;;;;;;;;;15.60;47.70;;;;;;8356981;28;19941;-70
2023/04/05 18:14:45;;;;;;;;;;;15.20;49.00;;;;;;8359237;28;20373;-69
2023/04/05 18:18:47;;;;;;;;;;;14.80;49.80;;;;;;8360718;28;19938;-69
2023/04/05 18:22:48;;;;;;;;;;;14.50;50.60;;;;;;8356136;28;20790;-70
2023/04/05 18:26:50;;;;;;;;;;;14.20;50.50;;;;;;8359472;28;20023;-69
2023/04/05 18:30:52;;;;;;;;;;;14.10;51.50;;;;;;8356908;28;19924;-69
2023/04/05 18:34:54;;;;;;;;;;;13.80;52.80;;;;;;8348260;28;19940;-70
2023/04/05 18:38:57;;;;;;;;;;;13.50;52.50;;;;;;8359236;28;19950;-69
2023/04/05 18:42:58;;;;;;;;;;;13.30;51.70;;;;;;8352460;28;19925;-69
2023/04/05 18:47:00;;;;;;;;;;;13.10;52.00;;;;;;8352570;28;20426;-69
2023/04/05 18:51:01;;;;;;;;;;;12.80;53.60;;;;;;8353006;28;19928;-69
2023/04/05 18:55:04;;;;;;;;;;;12.60;52.30;;;;;;8352679;28;20315;-70
2023/04/05 18:59:05;;;;;;;;;;;12.40;53.60;;;;;;8340607;28;19955;-69
2023/04/05 19:03:07;;;;;;;;;;;12.20;54.00;;;;;;8355449;28;19929;-69
2023/04/05 19:07:09;;;;;;;;;;;12.00;54.50;;;;;;8342071;28;19955;-69
2023/04/05 19:11:11;;;;;;;;;;;11.80;56.60;;;;;;8348329;28;19925;-69
2023/04/05 19:15:14;;;;;;;;;;;11.60;57.20;;;;;;8356073;28;19933;-69
2023/04/05 19:19:17;;;;;;;;;;;11.40;57.00;;;;;;8349083;28;20015;-69
2023/04/05 19:23:20;;;;;;;;;;;11.20;55.00;;;;;;8356960;28;19925;-69
2023/04/05 19:27:21;;;;;;;;;;;11.10;54.30;;;;;;8357711;28;20452;-69
2023/04/05 19:31:25;;;;;;;;;;;11.00;56.20;;;;;;8378961;28;19931;-69
2023/04/05 19:35:26;;;;;;;;;;;10.90;57.00;;;;;;8353260;28;19935;-69
2023/04/05 19:39:28;;;;;;;;;;;10.70;60.60;;;;;;8353999;28;19932;-69
2023/04/05 19:43:30;;;;;;;;;;;10.50;59.70;;;;;;8350696;28;20595;-69
2023/04/05 19:47:33;;;;;;;;;;;10.30;59.20;;;;;;8371219;28;19977;-69
2023/04/05 19:51:35;;;;;;;;;;;10.20;62.70;;;;;;8334108;28;20859;-69
2023/04/05 19:55:37;;;;;;;;;;;9.90;65.70;;;;;;8334846;28;19940;-69
2023/04/05 19:59:40;;;;;;;;;;;9.80;58.60;;;;;;8357167;28;20031;-69
2023/04/05 20:03:41;;;;;;;;;;;9.70;58.30;;;;;;8352922;28;20293;-69
2023/04/05 20:07:43;;;;;;;;;;;9.70;58.10;;;;;;8337515;28;19990;-69
2023/04/05 20:26:58;;;;;;;;;;;9.00;62.70;;;;;;8362049;28;19963;-69
2023/04/05 20:31:24;;;;;;;;;;;8.90;60.20;;;;;;8340725;28;19931;-69
2023/04/05 20:35:33;;;;;;;;;;;8.80;60.60;;;;;;8351865;28;20418;-69
2023/04/05 20:39:35;;;;;;;;;;;8.70;58.30;;;;;;8360463;28;19925;-69
2023/04/05 20:43:37;;;;;;;;;;;8.60;63.00;;;;;;8358656;28;19933;-69
2023/04/05 20:47:38;;;;;;;;;;;8.40;66.50;;;;;;8350506;28;20443;-69
2023/04/05 20:51:40;;;;;;;;;;;8.30;65.70;;;;;;8354689;28;19928;-69
2023/04/05 20:55:43;;;;;;;;;;;8.10;68.10;;;;;;8335543;28;20434;-69
2023/04/05 20:59:45;;;;;;;;;;;7.90;70.00;;;;;;8354070;28;19931;-69
2023/04/05 21:03:47;;;;;;;;;;;7.80;68.90;;;;;;8376828;28;19935;-69
2023/04/05 21:07:48;;;;;;;;;;;7.60;61.70;;;;;;8372575;28;19933;-69
2023/04/05 21:11:50;;;;;;;;;;;7.60;59.10;;;;;;8361539;28;19943;-69
2023/04/05 21:15:55;;;;;;;;;;;7.60;61.40;;;;;;8368617;28;20373;-69
2023/04/05 21:25:37;;;;;;;;;;;7.50;58.90;;;;;;8376299;28;20353;-69
2023/04/05 21:29:39;;;;;;;;;;;7.40;60.30;;;;;;8371405;28;19931;-69
2023/04/05 21:33:41;;;;;;;;;;;7.20;58.90;;;;;;8379321;28;20388;-69
2023/04/05 21:37:42;;;;;;;;;;;7.10;59.70;;;;;;8374379;28;19924;-69
2023/04/05 21:41:44;;;;;;;;;;;7.00;59.60;;;;;;8367661;28;19932;-69
2023/04/05 21:45:46;;;;;;;;;;;6.80;60.50;;;;;;8391224;28;19925;-69
2023/04/05 21:49:51;;;;;;;;;;;6.80;61.90;;;;;;8363565;28;19939;-69
2023/04/05 21:53:55;;;;;;;;;;;6.70;62.20;;;;;;8364929;28;20350;-69
2023/04/05 21:57:56;;;;;;;;;;;6.70;59.70;;;;;;8367573;28;20445;-69
2023/04/05 22:01:58;;;;;;;;;;;6.70;58.10;;;;;;8367838;28;20335;-69
2023/04/05 22:06:00;;;;;;;;;;;6.60;60.80;;;;;;8376307;28;19970;-69
2023/04/05 22:10:02;;;;;;;;;;;6.60;64.10;;;;;;8371848;28;19931;-69
2023/04/05 22:14:04;;;;;;;;;;;6.50;60.50;;;;;;8374430;28;20434;-69
2023/04/05 22:18:06;;;;;;;;;;;6.40;57.00;;;;;;8369944;28;19924;-69
2023/04/05 22:22:07;;;;;;;;;;;6.30;59.40;;;;;;8364446;28;19982;-69
2023/04/05 22:26:09;;;;;;;;;;;6.30;57.90;;;;;;8374326;28;19928;-69
2023/04/05 22:30:11;;;;;;;;;;;6.20;60.40;;;;;;8370342;28;19967;-69
2023/04/05 22:34:13;;;;;;;;;;;6.10;59.00;;;;;;8346108;28;19924;-69
2023/04/05 22:38:15;;;;;;;;;;;5.90;60.30;;;;;;8356764;28;20368;-69
2023/04/05 22:42:16;;;;;;;;;;;5.90;59.40;;;;;;8360402;28;20398;-69
2023/04/05 22:46:18;;;;;;;;;;;5.80;60.70;;;;;;8371588;28;19928;-69
2023/04/05 22:50:20;;;;;;;;;;;5.70;59.40;;;;;;8343515;28;19955;-69
2023/04/05 22:54:22;;;;;;;;;;;5.60;60.00;;;;;;8370743;28;20408;-69
2023/04/05 22:58:23;;;;;;;;;;;5.60;60.30;;;;;;8345612;28;20376;-69
2023/04/05 23:02:26;;;;;;;;;;;5.60;58.20;;;;;;8354146;28;19963;-69
2023/04/05 23:06:29;;;;;;;;;;;5.50;58.30;;;;;;8371550;28;19935;-69
2023/04/05 23:10:30;;;;;;;;;;;5.40;58.70;;;;;;8359033;28;19964;-69
2023/04/05 23:14:32;;;;;;;;;;;5.30;60.00;;;;;;8364979;28;20411;-69
2023/04/05 23:18:34;;;;;;;;;;;5.40;59.80;;;;;;8376199;28;20652;-68
2023/04/05 23:22:35;;;;;;;;;;;5.30;58.30;;;;;;8370319;28;19924;-69
2023/04/05 23:26:37;;;;;;;;;;;5.30;60.20;;;;;;8360115;28;20024;-69
2023/04/05 23:30:39;;;;;;;;;;;5.30;60.00;;;;;;8377821;28;19939;-69
2023/04/05 23:34:40;;;;;;;;;;;5.30;59.30;;;;;;8375269;28;20032;-69
2023/04/05 23:38:42;;;;;;;;;;;5.20;61.80;;;;;;8364879;28;19924;-69
2023/04/05 23:42:44;;;;;;;;;;;5.20;61.40;;;;;;8376249;28;19975;-69
2023/04/05 23:46:46;;;;;;;;;;;5.20;61.20;;;;;;8366326;28;19928;-69
2023/04/05 23:50:47;;;;;;;;;;;5.20;59.80;;;;;;8384458;28;19928;-69
2023/04/05 23:54:49;;;;;;;;;;;5.30;61.40;;;;;;8370152;28;20018;-69
2023/04/05 23:58:51;;;;;;;;;;;5.40;61.20;;;;;;8395352;28;19924;-69
